sensor_id;sensor_type;location;lat;lon;timestamp;temperature;humidity
33811;DHT22;20119;48.334;16.206;2022-10-22T00:01:12;10.00;99.90
33811;DHT22;20119;48.334;16.206;2022-10-22T00:03:38;9.90;99.90
33811;DHT22;20119;48.334;16.206;2022-10-22T00:06:06;9.90;99.90
33811;DHT22;20119;48.334;16.206;2022-10-22T00:08:33;9.90;99.90
33811;DHT22;20119;48.334;16.206;2022-10-22T00:11:06;9.90;99.90
33811;DHT22;20119;48.334;16.206;2022-10-22T00:13:33;9.90;99.90
33811;DHT22;20119;48.334;16.206;2022-10-22T00:16:00;9.90;99.90
33811;DHT22;20119;48.334;16.206;2022-10-22T00:18:28;9.80;99.90
33811;DHT22;20119;48.334;16.206;2022-10-22T00:20:55;9.90;99.90
33811;DHT22;20119;48.334;16.206;2022-10-22T00:23:22;9.90;99.90
33811;DHT22;20119;48.334;16.206;2022-10-22T00:25:51;10.10;99.90
33811;DHT22;20119;48.334;16.206;2022-10-22T00:28:18;10.00;99.90
33811;DHT22;20119;48.334;16.206;2022-10-22T00:30:45;10.00;99.90
33811;DHT22;20119;48.334;16.206;2022-10-22T00:33:13;9.90;99.90
33811;DHT22;20119;48.334;16.206;2022-10-22T00:35:41;9.90;99.90
33811;DHT22;20119;48.334;16.206;2022-10-22T00:38:09;9.90;99.90
33811;DHT22;20119;48.334;16.206;2022-10-22T00:40:36;9.80;99.90
33811;DHT22;20119;48.334;16.206;2022-10-22T00:43:03;9.70;99.90
33811;DHT22;20119;48.334;16.206;2022-10-22T00:45:31;9.80;99.90
33811;DHT22;20119;48.334;16.206;2022-10-22T00:47:59;9.80;99.90
33811;DHT22;20119;48.334;16.206;2022-10-22T00:50:27;9.70;99.90
33811;DHT22;20119;48.334;16.206;2022-10-22T00:52:57;9.70;99.90
33811;DHT22;20119;48.334;16.206;2022-10-22T00:55:24;9.60;99.90
33811;DHT22;20119;48.334;16.206;2022-10-22T00:57:51;9.50;99.90
33811;DHT22;20119;48.334;16.206;2022-10-22T01:00:19;9.40;99.90
33811;DHT22;20119;48.334;16.206;2022-10-22T01:02:46;9.30;99.90
33811;DHT22;20119;48.334;16.206;2022-10-22T01:05:14;9.20;99.90
33811;DHT22;20119;48.334;16.206;2022-10-22T01:07:42;9.20;99.90
33811;DHT22;20119;48.334;16.206;2022-10-22T01:10:13;9.10;99.90
33811;DHT22;20119;48.334;16.206;2022-10-22T01:12:44;9.10;99.90
33811;DHT22;20119;48.334;16.206;2022-10-22T01:15:17;9.00;99.90
33811;DHT22;20119;48.334;16.206;2022-10-22T01:17:48;9.00;99.90
33811;DHT22;20119;48.334;16.206;2022-10-22T01:20:18;9.00;99.90
33811;DHT22;20119;48.334;16.206;2022-10-22T01:22:54;8.90;99.90
33811;DHT22;20119;48.334;16.206;2022-10-22T01:25:27;8.90;99.90
33811;DHT22;20119;48.334;16.206;2022-10-22T01:27:58;8.80;99.90
33811;DHT22;20119;48.334;16.206;2022-10-22T01:30:28;8.80;99.90
33811;DHT22;20119;48.334;16.206;2022-10-22T01:32:55;8.70;99.90
33811;DHT22;20119;48.334;16.206;2022-10-22T01:35:24;8.70;99.90
33811;DHT22;20119;48.334;16.206;2022-10-22T01:37:53;8.80;99.90
33811;DHT22;20119;48.334;16.206;2022-10-22T01:40:21;8.70;99.90
33811;DHT22;20119;48.334;16.206;2022-10-22T01:42:55;8.70;99.90
33811;DHT22;20119;48.334;16.206;2022-10-22T01:45:23;8.70;99.90
33811;DHT22;20119;48.334;16.206;2022-10-22T01:47:57;8.70;99.90
33811;DHT22;20119;48.334;16.206;2022-10-22T01:50:37;8.70;99.90
33811;DHT22;20119;48.334;16.206;2022-10-22T01:53:16;8.70;99.90
33811;DHT22;20119;48.334;16.206;2022-10-22T01:55:48;8.80;99.90
33811;DHT22;20119;48.334;16.206;2022-10-22T01:58:21;8.70;99.90
33811;DHT22;20119;48.334;16.206;2022-10-22T02:00:52;8.60;99.90
33811;DHT22;20119;48.334;16.206;2022-10-22T02:03:23;8.50;99.90
33811;DHT22;20119;48.334;16.206;2022-10-22T02:05:53;8.40;99.90
33811;DHT22;20119;48.334;16.206;2022-10-22T02:08:21;8.30;99.90
33811;DHT22;20119;48.334;16.206;2022-10-22T02:10:50;8.30;99.90
33811;DHT22;20119;48.334;16.206;2022-10-22T02:13:18;8.30;99.90
33811;DHT22;20119;48.334;16.206;2022-10-22T02:15:47;8.30;99.90
33811;DHT22;20119;48.334;16.206;2022-10-22T02:18:16;8.40;99.90
33811;DHT22;20119;48.334;16.206;2022-10-22T02:20:45;8.40;99.90
33811;DHT22;20119;48.334;16.206;2022-10-22T02:23:13;8.40;99.90
33811;DHT22;20119;48.334;16.206;2022-10-22T02:25:41;8.40;99.90
33811;DHT22;20119;48.334;16.206;2022-10-22T02:28:10;8.30;99.90
33811;DHT22;20119;48.334;16.206;2022-10-22T02:30:38;8.20;99.90
33811;DHT22;20119;48.334;16.206;2022-10-22T02:33:09;8.20;99.90
33811;DHT22;20119;48.334;16.206;2022-10-22T02:35:37;8.10;99.90
33811;DHT22;20119;48.334;16.206;2022-10-22T02:38:08;8.10;99.90
33811;DHT22;20119;48.334;16.206;2022-10-22T02:40:36;8.10;99.90
33811;DHT22;20119;48.334;16.206;2022-10-22T02:43:03;8.10;99.90
33811;DHT22;20119;48.334;16.206;2022-10-22T02:45:30;8.10;99.90
33811;DHT22;20119;48.334;16.206;2022-10-22T02:47:58;8.10;99.90
33811;DHT22;20119;48.334;16.206;2022-10-22T02:50:25;8.10;99.90
33811;DHT22;20119;48.334;16.206;2022-10-22T02:52:52;8.20;99.90
33811;DHT22;20119;48.334;16.206;2022-10-22T02:55:20;8.10;99.90
33811;DHT22;20119;48.334;16.206;2022-10-22T02:57:47;8.10;99.90
33811;DHT22;20119;48.334;16.206;2022-10-22T03:00:14;8.00;99.90
33811;DHT22;20119;48.334;16.206;2022-10-22T03:02:41;7.90;99.90
33811;DHT22;20119;48.334;16.206;2022-10-22T03:05:09;7.90;99.90
33811;DHT22;20119;48.334;16.206;2022-10-22T03:07:36;7.80;99.90
33811;DHT22;20119;48.334;16.206;2022-10-22T03:10:03;7.80;99.90
33811;DHT22;20119;48.334;16.206;2022-10-22T03:12:32;7.80;99.90
33811;DHT22;20119;48.334;16.206;2022-10-22T03:15:00;7.80;99.90
33811;DHT22;20119;48.334;16.206;2022-10-22T03:17:31;7.80;99.90
33811;DHT22;20119;48.334;16.206;2022-10-22T03:19:58;7.80;99.90
33811;DHT22;20119;48.334;16.206;2022-10-22T03:22:26;7.80;99.90
33811;DHT22;20119;48.334;16.206;2022-10-22T03:24:54;7.80;99.90
33811;DHT22;20119;48.334;16.206;2022-10-22T03:27:23;7.80;99.90
33811;DHT22;20119;48.334;16.206;2022-10-22T03:29:52;7.80;99.90
33811;DHT22;20119;48.334;16.206;2022-10-22T03:32:19;7.80;99.90
33811;DHT22;20119;48.334;16.206;2022-10-22T03:34:46;7.70;99.90
33811;DHT22;20119;48.334;16.206;2022-10-22T03:37:13;7.70;99.90
33811;DHT22;20119;48.334;16.206;2022-10-22T03:39:40;7.60;99.90
33811;DHT22;20119;48.334;16.206;2022-10-22T03:42:07;7.50;99.90
33811;DHT22;20119;48.334;16.206;2022-10-22T03:44:34;7.60;99.90
33811;DHT22;20119;48.334;16.206;2022-10-22T03:47:03;7.50;99.90
33811;DHT22;20119;48.334;16.206;2022-10-22T03:49:31;7.50;99.90
33811;DHT22;20119;48.334;16.206;2022-10-22T03:51:58;7.40;99.90
33811;DHT22;20119;48.334;16.206;2022-10-22T03:54:30;7.40;99.90
33811;DHT22;20119;48.334;16.206;2022-10-22T03:56:57;7.40;99.90
33811;DHT22;20119;48.334;16.206;2022-10-22T03:59:24;7.40;99.90
33811;DHT22;20119;48.334;16.206;2022-10-22T04:01:51;7.40;99.90
33811;DHT22;20119;48.334;16.206;2022-10-22T04:04:20;7.30;99.90
33811;DHT22;20119;48.334;16.206;2022-10-22T04:06:47;7.30;99.90
33811;DHT22;20119;48.334;16.206;2022-10-22T04:09:14;7.30;99.90
33811;DHT22;20119;48.334;16.206;2022-10-22T04:11:41;7.30;99.90
33811;DHT22;20119;48.334;16.206;2022-10-22T04:14:09;7.30;99.90
33811;DHT22;20119;48.334;16.206;2022-10-22T04:16:37;7.30;99.90
33811;DHT22;20119;48.334;16.206;2022-10-22T04:19:05;7.30;99.90
33811;DHT22;20119;48.334;16.206;2022-10-22T04:21:34;7.30;99.90
33811;DHT22;20119;48.334;16.206;2022-10-22T04:24:01;7.30;99.90
33811;DHT22;20119;48.334;16.206;2022-10-22T04:26:28;7.50;99.90
33811;DHT22;20119;48.334;16.206;2022-10-22T04:28:55;7.60;99.90
33811;DHT22;20119;48.334;16.206;2022-10-22T04:31:22;7.60;99.90
33811;DHT22;20119;48.334;16.206;2022-10-22T04:33:51;7.60;99.90
33811;DHT22;20119;48.334;16.206;2022-10-22T04:36:19;7.70;99.90
33811;DHT22;20119;48.334;16.206;2022-10-22T04:38:51;7.80;99.90
33811;DHT22;20119;48.334;16.206;2022-10-22T04:41:19;7.90;99.90
33811;DHT22;20119;48.334;16.206;2022-10-22T04:43:46;7.80;99.90
33811;DHT22;20119;48.334;16.206;2022-10-22T04:46:13;7.80;99.90
33811;DHT22;20119;48.334;16.206;2022-10-22T04:48:40;7.80;99.90
33811;DHT22;20119;48.334;16.206;2022-10-22T04:51:09;7.90;99.90
33811;DHT22;20119;48.334;16.206;2022-10-22T04:53:36;7.90;99.90
33811;DHT22;20119;48.334;16.206;2022-10-22T04:56:10;7.90;99.90
33811;DHT22;20119;48.334;16.206;2022-10-22T04:58:38;7.90;99.90
33811;DHT22;20119;48.334;16.206;2022-10-22T05:01:08;8.00;99.90
33811;DHT22;20119;48.334;16.206;2022-10-22T05:03:35;7.90;99.90
33811;DHT22;20119;48.334;16.206;2022-10-22T05:06:02;8.00;99.90
33811;DHT22;20119;48.334;16.206;2022-10-22T05:08:29;7.90;99.90
33811;DHT22;20119;48.334;16.206;2022-10-22T05:10:56;7.90;99.90
33811;DHT22;20119;48.334;16.206;2022-10-22T05:13:24;7.80;99.90
33811;DHT22;20119;48.334;16.206;2022-10-22T05:15:51;7.70;99.90
33811;DHT22;20119;48.334;16.206;2022-10-22T05:18:19;7.70;99.90
33811;DHT22;20119;48.334;16.206;2022-10-22T05:20:45;7.60;99.90
33811;DHT22;20119;48.334;16.206;2022-10-22T05:23:12;7.50;99.90
33811;DHT22;20119;48.334;16.206;2022-10-22T05:25:39;7.40;99.90
33811;DHT22;20119;48.334;16.206;2022-10-22T05:28:06;7.40;99.90
33811;DHT22;20119;48.334;16.206;2022-10-22T05:30:34;7.40;99.90
33811;DHT22;20119;48.334;16.206;2022-10-22T05:33:01;7.40;99.90
33811;DHT22;20119;48.334;16.206;2022-10-22T05:35:28;7.40;99.90
33811;DHT22;20119;48.334;16.206;2022-10-22T05:37:55;7.40;99.90
33811;DHT22;20119;48.334;16.206;2022-10-22T05:40:22;7.50;99.90
33811;DHT22;20119;48.334;16.206;2022-10-22T05:42:49;7.50;99.90
33811;DHT22;20119;48.334;16.206;2022-10-22T05:45:16;7.50;99.90
33811;DHT22;20119;48.334;16.206;2022-10-22T05:47:44;7.50;99.90
33811;DHT22;20119;48.334;16.206;2022-10-22T05:50:11;7.50;99.90
33811;DHT22;20119;48.334;16.206;2022-10-22T05:52:38;7.50;99.90
33811;DHT22;20119;48.334;16.206;2022-10-22T05:55:05;7.60;99.90
33811;DHT22;20119;48.334;16.206;2022-10-22T05:57:32;7.60;99.90
33811;DHT22;20119;48.334;16.206;2022-10-22T05:59:59;7.70;99.90
33811;DHT22;20119;48.334;16.206;2022-10-22T06:02:25;7.70;99.90
33811;DHT22;20119;48.334;16.206;2022-10-22T06:04:54;7.70;99.90
33811;DHT22;20119;48.334;16.206;2022-10-22T06:07:21;7.80;99.90
33811;DHT22;20119;48.334;16.206;2022-10-22T06:09:48;7.80;99.90
33811;DHT22;20119;48.334;16.206;2022-10-22T06:12:15;7.90;99.90
33811;DHT22;20119;48.334;16.206;2022-10-22T06:14:42;8.00;99.90
33811;DHT22;20119;48.334;16.206;2022-10-22T06:17:09;8.00;99.90
33811;DHT22;20119;48.334;16.206;2022-10-22T06:19:37;8.10;99.90
33811;DHT22;20119;48.334;16.206;2022-10-22T06:22:06;8.20;99.90
33811;DHT22;20119;48.334;16.206;2022-10-22T06:24:33;8.20;99.90
33811;DHT22;20119;48.334;16.206;2022-10-22T06:27:01;8.30;99.90
33811;DHT22;20119;48.334;16.206;2022-10-22T06:29:28;8.40;99.90
33811;DHT22;20119;48.334;16.206;2022-10-22T06:31:54;8.50;99.90
33811;DHT22;20119;48.334;16.206;2022-10-22T06:34:21;8.60;99.90
33811;DHT22;20119;48.334;16.206;2022-10-22T06:36:48;8.80;99.90
33811;DHT22;20119;48.334;16.206;2022-10-22T06:39:17;9.00;99.90
33811;DHT22;20119;48.334;16.206;2022-10-22T06:41:44;9.30;99.90
33811;DHT22;20119;48.334;16.206;2022-10-22T06:44:12;9.50;99.90
33811;DHT22;20119;48.334;16.206;2022-10-22T06:46:39;9.60;99.90
33811;DHT22;20119;48.334;16.206;2022-10-22T06:49:09;9.80;99.90
33811;DHT22;20119;48.334;16.206;2022-10-22T06:51:36;9.90;99.90
33811;DHT22;20119;48.334;16.206;2022-10-22T06:54:04;9.80;99.90
33811;DHT22;20119;48.334;16.206;2022-10-22T06:56:32;9.80;99.90
33811;DHT22;20119;48.334;16.206;2022-10-22T06:58:59;9.90;99.90
33811;DHT22;20119;48.334;16.206;2022-10-22T07:01:29;10.10;99.90
33811;DHT22;20119;48.334;16.206;2022-10-22T07:03:57;10.10;99.90
33811;DHT22;20119;48.334;16.206;2022-10-22T07:06:24;10.20;99.90
33811;DHT22;20119;48.334;16.206;2022-10-22T07:08:52;10.20;99.90
33811;DHT22;20119;48.334;16.206;2022-10-22T07:11:20;10.30;99.90
33811;DHT22;20119;48.334;16.206;2022-10-22T07:13:49;10.50;99.90
33811;DHT22;20119;48.334;16.206;2022-10-22T07:16:16;10.90;99.90
33811;DHT22;20119;48.334;16.206;2022-10-22T07:18:44;11.00;99.90
33811;DHT22;20119;48.334;16.206;2022-10-22T07:21:12;10.90;99.90
33811;DHT22;20119;48.334;16.206;2022-10-22T07:23:40;10.80;99.90
33811;DHT22;20119;48.334;16.206;2022-10-22T07:26:07;10.70;99.90
33811;DHT22;20119;48.334;16.206;2022-10-22T07:28:36;10.50;99.90
33811;DHT22;20119;48.334;16.206;2022-10-22T07:31:05;10.40;99.90
33811;DHT22;20119;48.334;16.206;2022-10-22T07:33:33;10.30;99.90
33811;DHT22;20119;48.334;16.206;2022-10-22T07:36:01;10.40;99.90
33811;DHT22;20119;48.334;16.206;2022-10-22T07:38:28;10.40;99.90
33811;DHT22;20119;48.334;16.206;2022-10-22T07:40:57;10.40;99.90
33811;DHT22;20119;48.334;16.206;2022-10-22T07:43:25;10.30;99.90
33811;DHT22;20119;48.334;16.206;2022-10-22T07:45:52;10.30;99.90
33811;DHT22;20119;48.334;16.206;2022-10-22T07:48:21;10.40;99.90
33811;DHT22;20119;48.334;16.206;2022-10-22T07:50:49;10.40;99.90
33811;DHT22;20119;48.334;16.206;2022-10-22T07:53:16;10.50;99.90
33811;DHT22;20119;48.334;16.206;2022-10-22T07:55:46;10.70;99.90
33811;DHT22;20119;48.334;16.206;2022-10-22T07:58:14;10.70;99.90
33811;DHT22;20119;48.334;16.206;2022-10-22T08:00:40;10.50;99.90
33811;DHT22;20119;48.334;16.206;2022-10-22T08:03:08;10.60;99.90
33811;DHT22;20119;48.334;16.206;2022-10-22T08:05:36;10.60;99.90
33811;DHT22;20119;48.334;16.206;2022-10-22T08:08:04;10.60;99.90
33811;DHT22;20119;48.334;16.206;2022-10-22T08:10:31;10.70;99.90
33811;DHT22;20119;48.334;16.206;2022-10-22T08:12:59;10.40;99.90
33811;DHT22;20119;48.334;16.206;2022-10-22T08:15:25;10.40;99.90
33811;DHT22;20119;48.334;16.206;2022-10-22T08:17:52;10.40;99.90
33811;DHT22;20119;48.334;16.206;2022-10-22T08:20:19;10.40;99.90
33811;DHT22;20119;48.334;16.206;2022-10-22T08:22:47;10.30;99.90
33811;DHT22;20119;48.334;16.206;2022-10-22T08:25:14;10.30;99.90
33811;DHT22;20119;48.334;16.206;2022-10-22T08:27:42;10.30;99.90
33811;DHT22;20119;48.334;16.206;2022-10-22T08:30:10;10.10;99.90
33811;DHT22;20119;48.334;16.206;2022-10-22T08:32:37;10.20;99.90
33811;DHT22;20119;48.334;16.206;2022-10-22T08:35:04;10.10;99.90
33811;DHT22;20119;48.334;16.206;2022-10-22T08:37:32;10.00;99.90
33811;DHT22;20119;48.334;16.206;2022-10-22T08:40:00;10.00;99.90
33811;DHT22;20119;48.334;16.206;2022-10-22T08:42:31;10.00;99.90
33811;DHT22;20119;48.334;16.206;2022-10-22T08:45:02;10.00;99.90
33811;DHT22;20119;48.334;16.206;2022-10-22T08:47:34;10.00;99.90
33811;DHT22;20119;48.334;16.206;2022-10-22T08:50:07;9.90;99.90
33811;DHT22;20119;48.334;16.206;2022-10-22T08:52:34;10.00;99.90
33811;DHT22;20119;48.334;16.206;2022-10-22T08:55:08;10.00;99.90
33811;DHT22;20119;48.334;16.206;2022-10-22T08:57:40;10.00;99.90
33811;DHT22;20119;48.334;16.206;2022-10-22T09:00:12;10.00;99.90
33811;DHT22;20119;48.334;16.206;2022-10-22T09:02:44;10.00;99.90
33811;DHT22;20119;48.334;16.206;2022-10-22T09:05:16;10.10;99.90
33811;DHT22;20119;48.334;16.206;2022-10-22T09:07:46;10.10;99.90
33811;DHT22;20119;48.334;16.206;2022-10-22T09:10:16;10.10;99.90
33811;DHT22;20119;48.334;16.206;2022-10-22T09:12:44;10.20;99.90
33811;DHT22;20119;48.334;16.206;2022-10-22T09:15:13;10.20;99.90
33811;DHT22;20119;48.334;16.206;2022-10-22T09:17:44;10.20;99.90
33811;DHT22;20119;48.334;16.206;2022-10-22T09:20:19;10.30;99.90
33811;DHT22;20119;48.334;16.206;2022-10-22T09:22:51;10.30;99.90
33811;DHT22;20119;48.334;16.206;2022-10-22T09:25:27;10.40;99.90
33811;DHT22;20119;48.334;16.206;2022-10-22T09:27:54;10.50;99.90
33811;DHT22;20119;48.334;16.206;2022-10-22T09:30:24;10.60;99.90
33811;DHT22;20119;48.334;16.206;2022-10-22T09:32:51;10.60;99.90
33811;DHT22;20119;48.334;16.206;2022-10-22T09:35:21;10.70;99.90
33811;DHT22;20119;48.334;16.206;2022-10-22T09:37:48;10.90;99.90
33811;DHT22;20119;48.334;16.206;2022-10-22T09:40:16;11.10;99.90
33811;DHT22;20119;48.334;16.206;2022-10-22T09:42:45;11.00;99.90
33811;DHT22;20119;48.334;16.206;2022-10-22T09:45:14;11.00;99.90
33811;DHT22;20119;48.334;16.206;2022-10-22T09:47:43;11.00;99.90
33811;DHT22;20119;48.334;16.206;2022-10-22T09:50:19;11.10;99.90
33811;DHT22;20119;48.334;16.206;2022-10-22T09:52:50;11.10;99.90
33811;DHT22;20119;48.334;16.206;2022-10-22T09:55:20;11.20;99.90
33811;DHT22;20119;48.334;16.206;2022-10-22T09:57:52;11.30;99.90
33811;DHT22;20119;48.334;16.206;2022-10-22T10:00:20;11.40;99.90
33811;DHT22;20119;48.334;16.206;2022-10-22T10:02:52;11.40;99.90
33811;DHT22;20119;48.334;16.206;2022-10-22T10:05:23;11.50;99.90
33811;DHT22;20119;48.334;16.206;2022-10-22T10:07:50;11.50;99.90
33811;DHT22;20119;48.334;16.206;2022-10-22T10:10:18;11.50;99.90
33811;DHT22;20119;48.334;16.206;2022-10-22T10:12:47;11.50;99.90
33811;DHT22;20119;48.334;16.206;2022-10-22T10:15:19;11.40;99.90
33811;DHT22;20119;48.334;16.206;2022-10-22T10:17:49;11.50;99.90
33811;DHT22;20119;48.334;16.206;2022-10-22T10:20:23;11.70;99.90
33811;DHT22;20119;48.334;16.206;2022-10-22T10:22:53;11.60;99.90
33811;DHT22;20119;48.334;16.206;2022-10-22T10:25:31;11.70;99.90
33811;DHT22;20119;48.334;16.206;2022-10-22T10:28:02;11.60;99.90
33811;DHT22;20119;48.334;16.206;2022-10-22T10:33:13;11.60;99.90
33811;DHT22;20119;48.334;16.206;2022-10-22T10:35:45;11.60;99.90
33811;DHT22;20119;48.334;16.206;2022-10-22T10:38:24;11.70;99.90
33811;DHT22;20119;48.334;16.206;2022-10-22T10:40:54;11.80;99.90
33811;DHT22;20119;48.334;16.206;2022-10-22T10:43:24;11.80;99.90
33811;DHT22;20119;48.334;16.206;2022-10-22T10:45:56;11.90;99.90
33811;DHT22;20119;48.334;16.206;2022-10-22T10:48:38;11.90;99.90
33811;DHT22;20119;48.334;16.206;2022-10-22T10:51:11;11.90;99.90
33811;DHT22;20119;48.334;16.206;2022-10-22T10:53:52;12.10;99.90
33811;DHT22;20119;48.334;16.206;2022-10-22T10:56:26;12.20;99.90
33811;DHT22;20119;48.334;16.206;2022-10-22T10:58:56;12.40;99.90
33811;DHT22;20119;48.334;16.206;2022-10-22T11:01:26;12.50;99.90
33811;DHT22;20119;48.334;16.206;2022-10-22T11:04:03;12.70;99.90
33811;DHT22;20119;48.334;16.206;2022-10-22T11:06:36;12.90;99.90
33811;DHT22;20119;48.334;16.206;2022-10-22T11:09:06;13.00;99.90
33811;DHT22;20119;48.334;16.206;2022-10-22T11:11:35;13.10;99.90
33811;DHT22;20119;48.334;16.206;2022-10-22T11:14:05;13.10;99.90
33811;DHT22;20119;48.334;16.206;2022-10-22T11:16:37;13.30;99.90
33811;DHT22;20119;48.334;16.206;2022-10-22T11:19:10;13.20;99.90
33811;DHT22;20119;48.334;16.206;2022-10-22T11:21:38;13.20;99.90
33811;DHT22;20119;48.334;16.206;2022-10-22T11:24:09;13.30;99.90
33811;DHT22;20119;48.334;16.206;2022-10-22T11:26:40;13.50;99.90
33811;DHT22;20119;48.334;16.206;2022-10-22T11:29:12;13.80;99.90
33811;DHT22;20119;48.334;16.206;2022-10-22T11:31:39;13.80;99.90
33811;DHT22;20119;48.334;16.206;2022-10-22T11:34:09;14.00;99.90
33811;DHT22;20119;48.334;16.206;2022-10-22T11:36:39;14.00;99.90
33811;DHT22;20119;48.334;16.206;2022-10-22T11:41:54;13.80;99.90
33811;DHT22;20119;48.334;16.206;2022-10-22T11:44:23;13.80;99.90
33811;DHT22;20119;48.334;16.206;2022-10-22T11:46:54;13.90;99.90
33811;DHT22;20119;48.334;16.206;2022-10-22T11:49:24;14.00;99.90
33811;DHT22;20119;48.334;16.206;2022-10-22T11:51:51;13.90;99.90
33811;DHT22;20119;48.334;16.206;2022-10-22T11:54:38;14.00;99.90
33811;DHT22;20119;48.334;16.206;2022-10-22T11:57:18;14.00;99.90
33811;DHT22;20119;48.334;16.206;2022-10-22T11:59:50;14.00;99.90
33811;DHT22;20119;48.334;16.206;2022-10-22T12:05:29;14.10;99.90
33811;DHT22;20119;48.334;16.206;2022-10-22T12:07:58;14.20;99.90
33811;DHT22;20119;48.334;16.206;2022-10-22T12:10:28;14.30;99.90
33811;DHT22;20119;48.334;16.206;2022-10-22T12:13:00;14.40;99.90
33811;DHT22;20119;48.334;16.206;2022-10-22T12:15:28;14.40;99.90
33811;DHT22;20119;48.334;16.206;2022-10-22T12:17:57;14.60;99.90
33811;DHT22;20119;48.334;16.206;2022-10-22T12:20:26;14.70;99.90
33811;DHT22;20119;48.334;16.206;2022-10-22T12:22:54;14.80;99.90
33811;DHT22;20119;48.334;16.206;2022-10-22T12:25:21;14.90;99.90
33811;DHT22;20119;48.334;16.206;2022-10-22T12:27:50;14.90;99.90
33811;DHT22;20119;48.334;16.206;2022-10-22T12:30:18;14.90;99.90
33811;DHT22;20119;48.334;16.206;2022-10-22T12:32:50;14.90;99.90
33811;DHT22;20119;48.334;16.206;2022-10-22T12:35:18;14.90;99.90
33811;DHT22;20119;48.334;16.206;2022-10-22T12:37:49;15.00;99.90
33811;DHT22;20119;48.334;16.206;2022-10-22T12:40:17;15.00;99.90
33811;DHT22;20119;48.334;16.206;2022-10-22T12:42:48;15.00;99.90
33811;DHT22;20119;48.334;16.206;2022-10-22T12:45:15;15.00;99.90
33811;DHT22;20119;48.334;16.206;2022-10-22T12:47:44;15.00;99.90
33811;DHT22;20119;48.334;16.206;2022-10-22T12:50:14;15.00;99.90
33811;DHT22;20119;48.334;16.206;2022-10-22T12:52:43;15.00;99.90
33811;DHT22;20119;48.334;16.206;2022-10-22T12:55:16;14.90;99.90
33811;DHT22;20119;48.334;16.206;2022-10-22T12:57:45;14.90;99.90
33811;DHT22;20119;48.334;16.206;2022-10-22T13:00:19;14.90;99.90
33811;DHT22;20119;48.334;16.206;2022-10-22T13:02:46;14.90;99.90
33811;DHT22;20119;48.334;16.206;2022-10-22T13:05:15;14.70;99.90
33811;DHT22;20119;48.334;16.206;2022-10-22T13:07:45;14.70;99.90
33811;DHT22;20119;48.334;16.206;2022-10-22T13:10:14;14.70;99.90
33811;DHT22;20119;48.334;16.206;2022-10-22T13:12:47;14.60;99.90
33811;DHT22;20119;48.334;16.206;2022-10-22T13:15:20;14.60;99.90
33811;DHT22;20119;48.334;16.206;2022-10-22T13:17:48;14.60;99.90
33811;DHT22;20119;48.334;16.206;2022-10-22T13:20:19;14.60;99.90
33811;DHT22;20119;48.334;16.206;2022-10-22T13:22:54;14.60;99.90
33811;DHT22;20119;48.334;16.206;2022-10-22T13:25:25;14.60;99.90
33811;DHT22;20119;48.334;16.206;2022-10-22T13:27:55;14.60;99.90
33811;DHT22;20119;48.334;16.206;2022-10-22T13:30:23;14.60;99.90
33811;DHT22;20119;48.334;16.206;2022-10-22T13:32:51;14.50;99.90
33811;DHT22;20119;48.334;16.206;2022-10-22T13:35:22;14.50;99.90
33811;DHT22;20119;48.334;16.206;2022-10-22T13:37:49;14.50;99.90
33811;DHT22;20119;48.334;16.206;2022-10-22T13:40:17;14.60;99.90
33811;DHT22;20119;48.334;16.206;2022-10-22T13:42:44;14.70;99.90
33811;DHT22;20119;48.334;16.206;2022-10-22T13:45:13;14.60;99.90
33811;DHT22;20119;48.334;16.206;2022-10-22T13:47:39;14.50;99.90
33811;DHT22;20119;48.334;16.206;2022-10-22T13:50:11;14.50;99.90
33811;DHT22;20119;48.334;16.206;2022-10-22T13:52:39;14.50;99.90
33811;DHT22;20119;48.334;16.206;2022-10-22T13:55:14;14.40;99.90
33811;DHT22;20119;48.334;16.206;2022-10-22T13:57:41;14.40;99.90
33811;DHT22;20119;48.334;16.206;2022-10-22T14:00:10;14.40;99.90
33811;DHT22;20119;48.334;16.206;2022-10-22T14:02:39;14.40;99.90
33811;DHT22;20119;48.334;16.206;2022-10-22T14:05:06;14.40;99.90
33811;DHT22;20119;48.334;16.206;2022-10-22T14:07:35;14.40;99.90
33811;DHT22;20119;48.334;16.206;2022-10-22T14:10:05;14.30;99.90
33811;DHT22;20119;48.334;16.206;2022-10-22T14:12:32;14.40;99.90
33811;DHT22;20119;48.334;16.206;2022-10-22T14:15:00;14.30;99.90
33811;DHT22;20119;48.334;16.206;2022-10-22T14:17:27;14.30;99.90
33811;DHT22;20119;48.334;16.206;2022-10-22T14:19:55;14.20;99.90
33811;DHT22;20119;48.334;16.206;2022-10-22T14:22:22;14.20;99.90
33811;DHT22;20119;48.334;16.206;2022-10-22T14:24:50;14.20;99.90
33811;DHT22;20119;48.334;16.206;2022-10-22T14:27:18;14.10;99.90
33811;DHT22;20119;48.334;16.206;2022-10-22T14:29:45;14.10;99.90
33811;DHT22;20119;48.334;16.206;2022-10-22T14:32:13;14.10;99.90
33811;DHT22;20119;48.334;16.206;2022-10-22T14:34:41;14.10;99.90
33811;DHT22;20119;48.334;16.206;2022-10-22T14:37:13;14.10;99.90
33811;DHT22;20119;48.334;16.206;2022-10-22T14:39:41;14.10;99.90
33811;DHT22;20119;48.334;16.206;2022-10-22T14:42:11;14.00;99.90
33811;DHT22;20119;48.334;16.206;2022-10-22T14:44:38;14.00;99.90
33811;DHT22;20119;48.334;16.206;2022-10-22T14:47:05;14.00;99.90
33811;DHT22;20119;48.334;16.206;2022-10-22T14:49:32;14.00;99.90
33811;DHT22;20119;48.334;16.206;2022-10-22T14:51:59;13.90;99.90
33811;DHT22;20119;48.334;16.206;2022-10-22T14:54:27;13.90;99.90
33811;DHT22;20119;48.334;16.206;2022-10-22T14:56:54;13.90;99.90
33811;DHT22;20119;48.334;16.206;2022-10-22T14:59:21;13.80;99.90
33811;DHT22;20119;48.334;16.206;2022-10-22T15:01:52;13.80;99.90
33811;DHT22;20119;48.334;16.206;2022-10-22T15:04:19;13.80;99.90
33811;DHT22;20119;48.334;16.206;2022-10-22T15:06:46;13.70;99.90
33811;DHT22;20119;48.334;16.206;2022-10-22T15:09:13;13.70;99.90
33811;DHT22;20119;48.334;16.206;2022-10-22T15:11:41;13.70;99.90
33811;DHT22;20119;48.334;16.206;2022-10-22T15:14:08;13.60;99.90
33811;DHT22;20119;48.334;16.206;2022-10-22T15:16:35;13.60;99.90
33811;DHT22;20119;48.334;16.206;2022-10-22T15:19:02;13.60;99.90
33811;DHT22;20119;48.334;16.206;2022-10-22T15:21:28;13.60;99.90
33811;DHT22;20119;48.334;16.206;2022-10-22T15:23:55;13.50;99.90
33811;DHT22;20119;48.334;16.206;2022-10-22T15:26:22;13.50;99.90
33811;DHT22;20119;48.334;16.206;2022-10-22T15:28:51;13.50;99.90
33811;DHT22;20119;48.334;16.206;2022-10-22T15:31:39;13.40;99.90
33811;DHT22;20119;48.334;16.206;2022-10-22T15:34:06;13.40;99.90
33811;DHT22;20119;48.334;16.206;2022-10-22T15:36:32;13.30;99.90
33811;DHT22;20119;48.334;16.206;2022-10-22T15:38:59;13.30;99.90
33811;DHT22;20119;48.334;16.206;2022-10-22T15:41:31;13.30;99.90